createdAt,value
2022-10-17T00:03:48.702Z,101560.0
2022-10-17T00:08:48.693Z,101560.0
2022-10-17T00:13:48.701Z,101570.0
2022-10-17T00:18:48.699Z,101560.0
2022-10-17T00:23:48.720Z,101560.0
2022-10-17T00:28:48.785Z,101570.0
2022-10-17T00:33:48.717Z,101550.0
2022-10-17T00:38:48.714Z,101540.0
2022-10-17T00:43:48.726Z,101550.0
2022-10-17T00:48:48.719Z,101550.0
2022-10-17T00:53:48.724Z,101530.0
2022-10-17T00:58:48.726Z,101530.0
2022-10-17T01:03:48.727Z,101540.0
2022-10-17T01:08:48.730Z,101540.0
2022-10-17T01:13:48.735Z,101530.0
2022-10-17T01:18:48.734Z,101530.0
2022-10-17T01:23:48.739Z,101530.0
2022-10-17T01:28:48.840Z,101530.0
2022-10-17T01:33:48.744Z,101530.0
2022-10-17T01:38:48.757Z,101530.0
2022-10-17T01:43:48.795Z,101530.0
2022-10-17T01:48:48.783Z,101520.0
2022-10-17T01:53:48.763Z,101510.0
2022-10-17T01:58:48.755Z,101490.0
2022-10-17T02:03:48.764Z,101500.0
2022-10-17T02:08:48.795Z,101500.0
2022-10-17T02:13:48.782Z,101500.0
2022-10-17T02:18:48.782Z,101500.0
2022-10-17T02:23:48.818Z,101510.0
2022-10-17T02:28:48.895Z,101500.0
2022-10-17T02:33:48.804Z,101510.0
2022-10-17T02:38:48.819Z,101490.0
2022-10-17T02:43:48.801Z,101500.0
2022-10-17T02:48:48.789Z,101500.0
2022-10-17T02:53:48.810Z,101500.0
2022-10-17T02:58:48.830Z,101500.0
2022-10-17T03:03:48.802Z,101500.0
2022-10-17T03:08:48.809Z,101490.0
2022-10-17T03:13:48.834Z,101510.0
2022-10-17T03:18:50.175Z,101510.0
2022-10-17T03:23:48.821Z,101510.0
2022-10-17T03:28:51.926Z,101500.0
2022-10-17T03:33:48.818Z,101510.0
2022-10-17T03:38:48.826Z,101500.0
2022-10-17T03:43:48.822Z,101510.0
2022-10-17T03:48:48.825Z,101510.0
2022-10-17T03:53:48.828Z,101510.0
2022-10-17T03:58:48.838Z,101500.0
2022-10-17T04:03:48.847Z,101500.0
2022-10-17T04:08:48.835Z,101490.0
2022-10-17T04:13:48.848Z,101500.0
2022-10-17T04:18:48.847Z,101500.0
2022-10-17T04:23:48.852Z,101500.0
2022-10-17T04:28:48.850Z,101500.0
2022-10-17T04:33:48.856Z,101510.0
2022-10-17T04:38:48.859Z,101520.0
2022-10-17T04:43:51.125Z,101520.0
2022-10-17T04:53:48.867Z,101530.0
2022-10-17T04:58:48.892Z,101540.0
2022-10-17T05:03:48.902Z,101530.0
2022-10-17T05:08:48.902Z,101540.0
2022-10-17T05:13:48.883Z,101540.0
2022-10-17T05:18:52.702Z,101540.0
2022-10-17T05:23:48.889Z,101560.0
2022-10-17T05:28:48.969Z,101550.0
2022-10-17T05:33:48.892Z,101560.0
2022-10-17T05:38:48.891Z,101560.0
2022-10-17T05:43:48.904Z,101560.0
2022-10-17T05:48:48.906Z,101570.0
2022-10-17T05:53:48.912Z,101580.0
2022-10-17T05:58:50.846Z,101580.0
2022-10-17T06:03:48.914Z,101580.0
2022-10-17T06:08:48.936Z,101580.0
2022-10-17T06:13:48.923Z,101590.0
2022-10-17T06:23:48.929Z,101590.0
2022-10-17T06:28:48.984Z,101600.0
2022-10-17T06:33:48.938Z,101610.0
2022-10-17T06:38:48.935Z,101600.0
2022-10-17T06:43:48.945Z,101610.0
2022-10-17T06:48:48.942Z,101600.0
2022-10-17T06:53:48.947Z,101600.0
2022-10-17T06:58:48.944Z,101610.0
2022-10-17T07:03:48.951Z,101610.0
2022-10-17T07:08:48.964Z,101620.0
2022-10-17T07:13:48.961Z,101610.0
2022-10-17T07:18:48.967Z,101630.0
2022-10-17T07:23:48.962Z,101610.0
2022-10-17T07:28:49.032Z,101620.0
2022-10-17T07:33:48.974Z,101640.0
2022-10-17T07:38:48.982Z,101650.0
2022-10-17T07:43:48.976Z,101650.0
2022-10-17T07:48:49.007Z,101680.0
2022-10-17T07:53:49.074Z,101690.0
2022-10-17T07:58:49.063Z,101700.0
2022-10-17T08:03:49.019Z,101740.0
2022-10-17T08:08:48.990Z,101750.0
2022-10-17T08:13:48.993Z,101760.0
2022-10-17T08:18:48.999Z,101770.0
2022-10-17T08:23:49.339Z,101780.0
2022-10-17T08:28:49.027Z,101780.0
2022-10-17T08:33:49.005Z,101790.0
2022-10-17T08:38:52.600Z,101810.0
2022-10-17T08:43:49.231Z,101820.0
2022-10-17T08:48:49.236Z,101820.0
2022-10-17T08:53:49.255Z,101820.0
2022-10-17T08:58:49.022Z,101830.0
2022-10-17T09:03:49.026Z,101820.0
2022-10-17T09:08:49.024Z,101840.0
2022-10-17T09:13:49.030Z,101830.0
2022-10-17T09:18:49.042Z,101830.0
2022-10-17T09:23:49.040Z,101840.0
2022-10-17T09:28:49.103Z,101830.0
2022-10-17T09:33:54.173Z,101850.0
2022-10-17T09:38:49.049Z,101910.0
2022-10-17T09:43:49.051Z,101960.0
2022-10-17T09:48:52.584Z,101830.0
2022-10-17T09:53:49.053Z,101820.0
2022-10-17T09:58:49.069Z,101830.0
2022-10-17T10:03:49.069Z,101840.0
2022-10-17T10:08:49.073Z,101870.0
2022-10-17T10:13:49.070Z,101880.0
2022-10-17T10:18:50.879Z,101860.0
2022-10-17T10:23:49.084Z,101860.0
2022-10-17T10:28:49.095Z,101870.0
2022-10-17T10:33:50.931Z,101870.0
2022-10-17T10:38:49.083Z,101890.0
2022-10-17T10:43:49.089Z,101890.0
2022-10-17T10:48:49.087Z,101890.0
2022-10-17T10:53:49.092Z,101900.0
2022-10-17T10:58:49.098Z,101910.0
2022-10-17T11:03:49.104Z,101910.0
2022-10-17T11:08:49.103Z,101940.0
2022-10-17T11:13:51.831Z,101940.0
2022-10-17T11:18:49.118Z,101940.0
2022-10-17T11:23:49.121Z,101950.0
2022-10-17T11:28:49.189Z,101960.0
2022-10-17T11:33:49.122Z,101980.0
2022-10-17T11:38:49.124Z,101980.0
2022-10-17T11:43:49.126Z,101990.0
2022-10-17T11:48:49.130Z,102000.0
2022-10-17T11:53:49.130Z,101990.0
2022-10-17T11:58:49.146Z,101990.0
2022-10-17T12:03:49.141Z,101990.0
2022-10-17T12:08:49.141Z,101980.0
2022-10-17T12:13:49.151Z,102000.0
2022-10-17T12:18:49.146Z,102000.0
2022-10-17T12:23:49.151Z,102000.0
2022-10-17T12:28:49.198Z,102010.0
2022-10-17T12:33:49.170Z,102010.0
2022-10-17T12:38:49.974Z,102010.0
2022-10-17T12:48:49.185Z,102010.0
2022-10-17T12:53:49.171Z,102020.0
2022-10-17T12:58:49.173Z,102000.0
2022-10-17T13:03:49.191Z,102020.0
2022-10-17T13:08:53.662Z,102030.0
2022-10-17T13:13:49.179Z,102030.0
2022-10-17T13:18:49.205Z,102040.0
2022-10-17T13:23:49.191Z,102040.0
2022-10-17T13:28:49.277Z,102050.0
2022-10-17T13:33:49.191Z,102060.0
2022-10-17T13:38:49.205Z,102070.0
2022-10-17T13:43:49.196Z,102070.0
2022-10-17T13:48:49.210Z,102080.0
2022-10-17T13:53:49.202Z,102090.0
2022-10-17T13:58:49.205Z,102090.0
2022-10-17T14:03:57.024Z,102100.0
2022-10-17T14:08:49.240Z,102100.0
2022-10-17T14:13:49.217Z,102100.0
2022-10-17T14:18:49.215Z,102120.0
2022-10-17T14:23:49.217Z,102130.0
2022-10-17T14:28:49.255Z,102140.0
2022-10-17T14:33:50.867Z,102150.0
2022-10-17T14:38:49.244Z,102150.0
2022-10-17T14:43:49.243Z,102150.0
2022-10-17T14:48:49.243Z,102170.0
2022-10-17T14:53:49.250Z,102170.0
2022-10-17T14:58:49.237Z,102170.0
2022-10-17T15:03:49.294Z,102160.0
2022-10-17T15:08:49.254Z,102150.0
2022-10-17T15:13:49.252Z,102150.0
2022-10-17T15:18:49.257Z,102150.0
2022-10-17T15:23:49.262Z,102140.0
2022-10-17T15:28:49.362Z,102150.0
2022-10-17T15:33:49.280Z,102170.0
2022-10-17T15:38:49.271Z,102170.0
2022-10-17T15:43:49.268Z,102180.0
2022-10-17T15:48:49.284Z,102190.0
2022-10-17T15:53:49.318Z,102210.0
2022-10-17T15:58:49.306Z,102220.0
2022-10-17T16:03:49.282Z,102220.0
2022-10-17T16:08:49.285Z,102210.0
2022-10-17T16:13:49.280Z,102230.0
2022-10-17T16:18:49.291Z,102230.0
2022-10-17T16:23:49.304Z,102240.0
2022-10-17T16:28:49.342Z,102250.0
2022-10-17T16:33:49.294Z,102240.0
2022-10-17T16:38:49.301Z,102250.0
2022-10-17T16:43:49.297Z,102260.0
2022-10-17T16:48:49.307Z,102260.0
2022-10-17T16:53:49.303Z,102270.0
2022-10-17T16:58:49.311Z,102260.0
2022-10-17T17:03:49.312Z,102270.0
2022-10-17T17:08:49.322Z,102280.0
2022-10-17T17:13:49.320Z,102280.0
2022-10-17T17:18:49.321Z,102270.0
2022-10-17T17:23:49.331Z,102290.0
2022-10-17T17:28:49.414Z,102290.0
2022-10-17T17:33:49.385Z,102290.0
2022-10-17T17:38:49.353Z,102280.0
2022-10-17T17:43:49.333Z,102310.0
2022-10-17T17:48:49.337Z,102310.0
2022-10-17T17:53:49.342Z,102320.0
2022-10-17T17:58:49.339Z,102320.0
2022-10-17T18:03:49.347Z,102320.0
2022-10-17T18:08:49.365Z,102330.0
2022-10-17T18:13:49.352Z,102330.0
2022-10-17T18:18:49.381Z,102330.0
2022-10-17T18:23:49.370Z,102330.0
2022-10-17T18:28:49.361Z,102340.0
2022-10-17T18:33:49.372Z,102350.0
2022-10-17T18:38:49.376Z,102350.0
2022-10-17T18:43:49.367Z,102350.0
2022-10-17T18:48:49.375Z,102350.0
2022-10-17T18:53:49.384Z,102360.0
2022-10-17T18:58:49.393Z,102360.0
2022-10-17T19:03:49.379Z,102370.0
2022-10-17T19:08:49.383Z,102360.0
2022-10-17T19:13:49.386Z,102370.0
2022-10-17T19:18:49.393Z,102360.0
2022-10-17T19:23:49.388Z,102360.0
2022-10-17T19:28:49.433Z,102360.0
2022-10-17T19:33:49.411Z,102370.0
2022-10-17T19:38:49.400Z,102380.0
2022-10-17T19:43:49.413Z,102370.0
2022-10-17T19:48:49.401Z,102360.0
2022-10-17T19:53:49.427Z,102360.0
2022-10-17T19:58:49.402Z,102370.0
2022-10-17T20:03:49.423Z,102380.0
2022-10-17T20:08:49.414Z,102390.0
2022-10-17T20:13:49.415Z,102390.0
2022-10-17T20:18:49.425Z,102390.0
2022-10-17T20:23:49.429Z,102390.0
2022-10-17T20:28:49.497Z,102390.0
2022-10-17T20:33:49.426Z,102390.0
2022-10-17T20:38:49.436Z,102400.0
2022-10-17T20:43:49.440Z,102410.0
2022-10-17T20:48:49.441Z,102410.0
2022-10-17T20:53:49.495Z,102420.0
2022-10-17T20:58:49.445Z,102420.0
2022-10-17T21:03:49.469Z,102420.0
2022-10-17T21:08:49.453Z,102440.0
2022-10-17T21:13:49.459Z,102440.0
2022-10-17T21:18:49.468Z,102450.0
2022-10-17T21:23:49.455Z,102450.0
2022-10-17T21:28:49.544Z,102450.0
2022-10-17T21:33:49.471Z,102450.0
2022-10-17T21:38:49.469Z,102450.0
2022-10-17T21:43:49.470Z,102460.0
2022-10-17T21:48:49.478Z,102460.0
2022-10-17T21:53:49.473Z,102460.0
2022-10-17T21:58:49.474Z,102460.0
2022-10-17T22:03:49.487Z,102460.0
2022-10-17T22:08:49.495Z,102470.0
2022-10-17T22:13:49.490Z,102480.0
2022-10-17T22:18:49.491Z,102470.0
2022-10-17T22:23:49.491Z,102470.0
2022-10-17T22:28:49.566Z,102470.0
2022-10-17T22:33:49.499Z,102480.0
2022-10-17T22:38:49.497Z,102500.0
2022-10-17T22:43:49.506Z,102500.0
2022-10-17T22:48:49.521Z,102490.0
2022-10-17T22:53:49.513Z,102490.0
2022-10-17T22:58:49.512Z,102510.0
2022-10-17T23:03:49.521Z,102510.0
2022-10-17T23:08:49.523Z,102510.0
2022-10-17T23:13:49.524Z,102500.0
2022-10-17T23:18:49.535Z,102510.0
2022-10-17T23:23:49.527Z,102510.0
2022-10-17T23:28:49.578Z,102500.0
2022-10-17T23:33:49.526Z,102500.0
2022-10-17T23:38:51.737Z,102500.0
2022-10-17T23:43:49.535Z,102500.0
2022-10-17T23:48:49.540Z,102500.0
2022-10-17T23:53:49.543Z,102500.0
2022-10-17T23:58:49.547Z,102500.0
